Time;durP1;ratioP1;P1;durP2;ratioP2;P2;SDS_P1;SDS_P2;PMS_P1;PMS_P2;Temp;Humidity;BMP_temperature;BMP_pressure;BME280_temperature;BME280_humidity;BME280_pressure;Samples;Min_cycle;Max_cycle;Signal;HPM_P1;HPM_P2
2021/05/27 00:00:18;;;;;;;10.95;5.10;;;;;;;17.91;56.82;101120.63;5044835;28;20049;-48
2021/05/27 00:02:43;;;;;;;11.98;5.70;;;;;;;17.87;57.17;101116.97;5045221;28;20040;-50
2021/05/27 00:05:09;;;;;;;9.80;5.15;;;;;;;17.85;56.89;101124.59;5027325;28;20040;-48
2021/05/27 00:07:35;;;;;;;14.13;6.22;;;;;;;17.95;56.65;101134.22;5045234;28;20055;-49
2021/05/27 00:10:00;;;;;;;13.30;5.43;;;;;;;17.87;56.55;101126.97;5044571;28;20567;-47
2021/05/27 00:12:26;;;;;;;12.07;5.68;;;;;;;17.84;56.91;101127.63;5045060;28;20064;-49
2021/05/27 00:14:51;;;;;;;9.32;5.53;;;;;;;17.89;56.96;101128.22;5045451;28;20037;-49
2021/05/27 00:17:17;;;;;;;13.07;6.00;;;;;;;17.92;56.65;101122.22;5045830;28;20045;-48
2021/05/27 00:19:42;;;;;;;10.90;5.78;;;;;;;17.89;56.51;101135.50;5010676;28;20041;-50
2021/05/27 00:22:07;;;;;;;9.88;5.45;;;;;;;17.88;56.98;101129.31;5026799;28;20035;-49
2021/05/27 00:24:33;;;;;;;12.98;5.75;;;;;;;17.95;56.67;101129.59;5045004;28;20045;-48
2021/05/27 00:26:58;;;;;;;8.80;5.00;;;;;;;18.00;56.74;101142.09;5044198;28;20045;-48
2021/05/27 00:29:23;;;;;;;14.43;5.07;;;;;;;17.94;56.71;101136.09;5037309;28;20051;-48
2021/05/27 00:31:49;;;;;;;11.63;5.15;;;;;;;17.89;56.72;101130.91;5039713;28;20039;-48
2021/05/27 00:34:14;;;;;;;12.90;5.47;;;;;;;17.96;56.65;101139.25;5026415;28;20400;-50
2021/05/27 00:36:40;;;;;;;10.07;5.53;;;;;;;17.86;56.91;101134.25;5045294;28;20064;-50
2021/05/27 00:39:05;;;;;;;10.52;5.20;;;;;;;17.83;56.94;101129.50;5043925;28;20037;-50
2021/05/27 00:41:30;;;;;;;9.45;5.07;;;;;;;17.91;56.73;101141.34;5010374;28;20041;-51
2021/05/27 00:43:56;;;;;;;11.82;5.63;;;;;;;17.86;56.90;101136.94;5045139;28;20029;-51
2021/05/27 00:46:21;;;;;;;9.88;5.35;;;;;;;17.91;56.47;101139.44;5043592;28;21035;-49
2021/05/27 00:49:02;;;;;;;11.35;5.43;;;;;;;17.93;56.71;101147.16;5043885;28;20045;-48
2021/05/27 00:51:27;;;;;;;10.30;5.22;;;;;;;17.87;56.46;101146.56;5024158;28;20788;-47
2021/05/27 00:53:53;;;;;;;11.60;5.28;;;;;;;17.88;56.57;101155.41;5004965;28;20060;-48
2021/05/27 00:56:19;;;;;;;9.18;5.05;;;;;;;17.87;57.00;101159.25;4989426;28;20739;-47
2021/05/27 00:58:44;;;;;;;12.13;6.45;;;;;;;17.81;56.59;101155.94;5024266;28;20050;-47
2021/05/27 01:01:10;;;;;;;11.32;5.75;;;;;;;17.88;56.72;101160.78;5023446;28;20041;-47
2021/05/27 01:03:35;;;;;;;10.45;5.63;;;;;;;17.89;56.67;101152.44;5023773;28;20292;-49
2021/05/27 01:06:01;;;;;;;9.05;5.03;;;;;;;17.81;56.72;101155.13;5003681;28;20519;-48
2021/05/27 01:08:26;;;;;;;12.60;5.65;;;;;;;17.81;57.02;101161.31;5023973;28;20033;-47
2021/05/27 01:10:52;;;;;;;12.25;6.03;;;;;;;17.85;56.80;101162.22;4986757;28;20397;-50
2021/05/27 01:13:20;;;;;;;9.70;5.13;;;;;;;17.89;56.81;101160.50;5023931;28;20064;-51
2021/05/27 01:15:46;;;;;;;9.07;4.93;;;;;;;17.91;57.08;101166.31;5024587;28;20041;-50
2021/05/27 01:18:12;;;;;;;9.82;4.90;;;;;;;17.96;56.50;101159.97;5005605;28;20040;-47
2021/05/27 01:20:39;;;;;;;9.20;5.25;;;;;;;17.90;56.70;101163.94;4997283;28;20033;-48
2021/05/27 01:23:04;;;;;;;9.80;4.95;;;;;;;17.96;56.91;101163.47;5013721;28;20043;-46
2021/05/27 01:25:30;;;;;;;7.97;4.88;;;;;;;17.95;56.81;101169.94;5023081;28;20037;-48
2021/05/27 01:27:55;;;;;;;8.50;4.97;;;;;;;17.86;57.06;101169.19;5017327;28;20446;-46
2021/05/27 01:30:21;;;;;;;9.93;4.90;;;;;;;17.91;56.89;101162.84;5043416;28;20045;-48
2021/05/27 01:32:46;;;;;;;10.35;5.00;;;;;;;17.94;56.85;101165.69;5043944;28;20124;-47
2021/05/27 01:35:19;;;;;;;10.10;5.15;;;;;;;17.97;56.87;101166.94;5043217;28;20445;-47
2021/05/27 01:37:45;;;;;;;9.60;4.75;;;;;;;18.01;56.79;101170.53;5025177;28;20170;-47
2021/05/27 01:40:12;;;;;;;9.05;4.65;;;;;;;18.05;56.43;101172.28;5042056;28;20540;-50
2021/05/27 01:42:37;;;;;;;6.28;4.50;;;;;;;18.04;56.82;101172.59;5025821;28;21847;-50
2021/05/27 01:45:04;;;;;;;10.63;4.75;;;;;;;18.03;56.68;101171.78;5043386;28;20116;-45
2021/05/27 01:47:29;;;;;;;9.57;5.20;;;;;;;18.07;56.61;101167.38;5043928;28;20029;-47
2021/05/27 01:49:55;;;;;;;11.65;4.65;;;;;;;18.10;56.52;101171.31;5042523;28;20379;-47
2021/05/27 01:52:20;;;;;;;9.55;4.75;;;;;;;18.03;56.75;101168.34;5042708;28;20053;-44
2021/05/27 01:54:46;;;;;;;7.20;4.35;;;;;;;18.01;56.97;101174.03;5042865;28;20036;-45
2021/05/27 01:57:11;;;;;;;10.02;4.30;;;;;;;18.07;56.72;101180.00;5042727;28;20056;-46
2021/05/27 01:59:37;;;;;;;9.25;4.53;;;;;;;18.00;56.96;101177.06;5043048;28;20390;-49
2021/05/27 02:02:02;;;;;;;7.93;4.43;;;;;;;18.00;57.08;101180.53;5041837;28;20033;-48
2021/05/27 02:04:27;;;;;;;9.30;4.70;;;;;;;18.00;57.19;101185.13;5042834;28;20033;-50
2021/05/27 02:06:53;;;;;;;6.93;4.30;;;;;;;18.04;56.83;101183.34;5043349;28;20037;-49
2021/05/27 02:09:18;;;;;;;7.35;4.90;;;;;;;17.98;57.01;101182.72;5027905;28;20603;-47
2021/05/27 02:11:48;;;;;;;8.45;4.72;;;;;;;17.96;57.06;101184.97;5002988;28;20064;-49
2021/05/27 02:14:14;;;;;;;8.98;4.32;;;;;;;17.90;56.87;101182.75;5022105;28;20492;-47
2021/05/27 02:16:40;;;;;;;9.30;4.85;;;;;;;17.92;57.08;101178.66;5005558;28;20037;-49
2021/05/27 02:19:06;;;;;;;9.27;4.60;;;;;;;17.97;57.14;101186.56;5022940;28;20120;-48
2021/05/27 02:21:31;;;;;;;6.43;4.18;;;;;;;18.00;56.85;101188.59;5022801;28;20117;-48
2021/05/27 02:23:58;;;;;;;9.85;4.35;;;;;;;17.99;57.00;101191.59;5022924;28;20128;-47
2021/05/27 02:26:23;;;;;;;9.55;4.60;;;;;;;17.98;56.98;101187.34;5022613;28;20880;-44
2021/05/27 02:28:49;;;;;;;6.70;4.25;;;;;;;17.94;57.24;101195.25;5003468;28;20092;-48
2021/05/27 02:31:14;;;;;;;10.32;4.95;;;;;;;17.94;57.09;101197.94;5005923;28;20030;-47
2021/05/27 02:33:40;;;;;;;7.68;4.13;;;;;;;17.90;57.28;101196.22;5023203;28;20045;-44
2021/05/27 02:36:05;;;;;;;7.53;4.45;;;;;;;17.95;57.11;101193.38;5022753;28;20490;-48
2021/05/27 02:38:31;;;;;;;8.77;4.65;;;;;;;17.95;57.08;101202.19;5026689;28;20052;-48
2021/05/27 02:40:56;;;;;;;8.77;4.20;;;;;;;17.91;57.32;101205.88;5009002;28;20025;-46
2021/05/27 02:43:21;;;;;;;9.02;4.95;;;;;;;17.92;57.13;101204.75;5026464;28;20041;-47
2021/05/27 02:45:47;;;;;;;7.68;4.22;;;;;;;17.89;57.36;101200.81;5027323;28;20038;-48
2021/05/27 02:48:12;;;;;;;7.57;4.88;;;;;;;17.96;56.99;101203.78;5010161;28;20522;-45
2021/05/27 02:50:37;;;;;;;9.15;4.13;;;;;;;17.96;57.00;101201.09;5027096;28;20037;-48
2021/05/27 02:53:03;;;;;;;7.03;4.32;;;;;;;17.99;57.04;101200.47;5027439;28;20499;-49
2021/05/27 02:55:28;;;;;;;7.53;4.30;;;;;;;18.02;57.08;101204.41;5025971;28;20033;-46
2021/05/27 02:57:54;;;;;;;9.65;4.72;;;;;;;18.01;56.84;101206.31;5027142;28;20102;-48
2021/05/27 03:00:19;;;;;;;6.55;4.40;;;;;;;18.03;56.79;101206.75;5006300;28;20052;-47
2021/05/27 03:02:44;;;;;;;8.60;4.32;;;;;;;17.98;57.08;101201.56;5013644;28;20034;-45
2021/05/27 03:05:10;;;;;;;8.32;4.80;;;;;;;17.90;57.15;101205.06;5016625;28;20515;-49
2021/05/27 03:07:36;;;;;;;10.18;4.80;;;;;;;17.88;57.14;101198.44;4999887;28;20054;-46
2021/05/27 03:10:01;;;;;;;10.13;4.47;;;;;;;17.95;57.17;101212.19;5021244;28;20392;-45
2021/05/27 03:12:26;;;;;;;8.77;4.20;;;;;;;17.98;57.20;101208.88;5027223;28;20046;-46
2021/05/27 03:14:52;;;;;;;7.13;4.40;;;;;;;17.91;57.12;101214.72;5024354;28;20048;-46
2021/05/27 03:17:17;;;;;;;6.78;4.20;;;;;;;17.94;57.11;101210.59;5026665;28;20037;-46
2021/05/27 03:19:42;;;;;;;8.18;4.15;;;;;;;17.99;57.10;101213.09;5026575;28;20102;-47
2021/05/27 03:22:08;;;;;;;7.40;4.25;;;;;;;17.98;57.20;101212.31;5019529;28;20038;-45
2021/05/27 03:24:33;;;;;;;8.35;4.18;;;;;;;17.91;57.41;101209.34;5010357;28;20044;-44
2021/05/27 03:26:58;;;;;;;9.38;4.35;;;;;;;17.93;57.41;101209.81;5026494;28;20042;-43
2021/05/27 03:29:24;;;;;;;9.20;4.10;;;;;;;17.93;57.26;101212.50;5045763;28;20037;-43
2021/05/27 03:31:49;;;;;;;7.63;4.63;;;;;;;17.83;57.42;101215.53;5028244;28;20041;-44
2021/05/27 03:34:14;;;;;;;8.77;4.30;;;;;;;17.88;57.31;101215.38;5044675;28;20037;-43
2021/05/27 03:36:40;;;;;;;5.80;4.20;;;;;;;17.86;57.51;101216.78;5046176;28;20033;-42
2021/05/27 03:39:05;;;;;;;8.18;4.07;;;;;;;17.83;57.20;101218.22;5045193;28;20059;-46
2021/05/27 03:41:31;;;;;;;7.53;4.57;;;;;;;17.87;57.25;101210.31;5046143;28;20691;-44
2021/05/27 03:43:56;;;;;;;12.48;4.65;;;;;;;17.81;57.38;101215.06;5027839;28;20049;-45
2021/05/27 03:46:21;;;;;;;7.72;4.60;;;;;;;17.86;57.23;101214.09;5027306;28;20033;-43
2021/05/27 03:48:47;;;;;;;7.38;4.20;;;;;;;17.88;57.27;101223.44;5041550;28;20095;-43
2021/05/27 03:51:12;;;;;;;6.78;4.47;;;;;;;17.92;57.14;101215.53;5025769;28;20399;-44
2021/05/27 03:53:37;;;;;;;8.30;4.43;;;;;;;17.93;57.28;101217.88;5022695;28;20041;-43
2021/05/27 03:56:03;;;;;;;7.47;4.10;;;;;;;17.93;57.34;101222.44;5024537;28;20491;-44
2021/05/27 04:01:13;;;;;;;8.25;4.32;;;;;;;17.90;57.30;101226.56;5024518;28;20415;-44
2021/05/27 04:09:06;;;;;;;5.13;3.92;;;;;;;17.95;57.15;101228.31;5024831;28;20068;-47
2021/05/27 04:11:32;;;;;;;6.30;4.22;;;;;;;17.94;57.44;101227.53;5025118;28;20492;-48
2021/05/27 04:13:57;;;;;;;6.13;3.97;;;;;;;17.94;57.22;101235.59;5007751;28;20037;-44
2021/05/27 04:16:23;;;;;;;7.95;3.90;;;;;;;17.86;57.42;101232.94;4990065;28;20575;-43
2021/05/27 04:18:48;;;;;;;7.93;4.28;;;;;;;17.91;57.13;101230.84;5025163;28;20041;-44
2021/05/27 04:21:14;;;;;;;9.38;3.92;;;;;;;17.98;57.27;101228.44;4993824;28;20041;-44
2021/05/27 04:23:40;;;;;;;5.68;3.90;;;;;;;17.96;57.20;101236.06;5022574;28;20914;-44
2021/05/27 04:26:07;;;;;;;7.95;3.70;;;;;;;17.89;57.68;101235.78;5025123;28;20037;-47
2021/05/27 04:28:32;;;;;;;7.53;3.42;;;;;;;17.89;57.56;101235.78;5003347;28;20321;-43
2021/05/27 04:31:08;;;;;;;7.53;4.10;;;;;;;17.80;57.80;101234.19;5021447;28;20504;-44
2021/05/27 04:33:34;;;;;;;9.20;3.65;;;;;;;17.88;57.53;101233.38;5043767;28;20039;-46
2021/05/27 04:36:00;;;;;;;13.10;4.03;;;;;;;17.93;57.56;101231.31;5044244;28;20037;-45
2021/05/27 04:38:25;;;;;;;6.88;3.55;;;;;;;17.95;57.47;101233.69;5040085;28;20049;-45
2021/05/27 04:40:50;;;;;;;9.57;4.22;;;;;;;17.94;57.64;101235.59;5031636;28;20033;-44
2021/05/27 04:43:16;;;;;;;6.10;3.90;;;;;;;17.94;57.64;101237.50;5019967;28;20538;-44
2021/05/27 04:45:42;;;;;;;9.20;3.95;;;;;;;17.97;57.85;101231.47;4989112;28;20038;-46
2021/05/27 04:48:12;;;;;;;8.18;3.85;;;;;;;18.00;57.44;101237.00;4998782;28;20149;-46
2021/05/27 04:50:38;;;;;;;7.57;3.90;;;;;;;18.00;57.71;101236.22;5022686;28;20103;-44
2021/05/27 04:53:04;;;;;;;5.57;3.40;;;;;;;17.98;57.66;101236.50;5005770;28;20495;-43
2021/05/27 04:55:29;;;;;;;8.25;3.90;;;;;;;17.97;57.60;101240.34;4986102;28;21255;-43
2021/05/27 04:57:55;;;;;;;8.10;3.38;;;;;;;17.96;57.48;101246.00;5008772;28;20067;-47
2021/05/27 05:00:21;;;;;;;6.65;3.70;;;;;;;17.98;57.96;101249.97;5010368;28;20046;-48
2021/05/27 05:02:47;;;;;;;6.55;3.67;;;;;;;18.00;57.58;101250.44;4967305;28;20520;-43
2021/05/27 05:05:13;;;;;;;5.53;3.40;;;;;;;17.99;57.65;101262.31;4989311;28;20048;-45
2021/05/27 05:07:39;;;;;;;6.40;3.75;;;;;;;17.87;57.72;101256.78;5018857;28;20500;-44
2021/05/27 05:10:05;;;;;;;11.65;4.13;;;;;;;17.93;58.41;101262.78;5001184;28;20042;-46
2021/05/27 05:12:44;;;;;;;9.35;4.30;;;;;;;17.87;59.33;101272.91;4958872;28;20044;-47
2021/05/27 05:15:17;;;;;;;7.90;4.57;;;;;;;17.80;59.58;101267.25;4994831;28;20539;-44
2021/05/27 05:17:43;;;;;;;7.63;4.22;;;;;;;17.79;59.43;101260.28;5001056;28;20025;-43
2021/05/27 05:20:09;;;;;;;7.70;4.10;;;;;;;17.85;59.27;101267.09;4984539;28;20045;-43
2021/05/27 05:22:35;;;;;;;9.88;4.07;;;;;;;17.85;59.50;101274.34;5021229;28;20045;-46
2021/05/27 05:25:00;;;;;;;9.25;4.05;;;;;;;17.86;59.30;101271.34;5017773;28;20049;-43
2021/05/27 05:27:26;;;;;;;9.10;4.43;;;;;;;17.80;58.44;101269.16;5000879;28;20039;-45
2021/05/27 05:29:51;;;;;;;11.52;4.00;;;;;;;17.82;59.14;101265.03;5018290;28;20033;-43
2021/05/27 05:32:17;;;;;;;11.20;4.00;;;;;;;17.84;58.66;101265.50;5019791;28;20041;-44
2021/05/27 05:34:42;;;;;;;7.68;3.85;;;;;;;17.87;58.81;101266.78;5022147;28;20606;-44
2021/05/27 05:37:07;;;;;;;9.15;4.05;;;;;;;17.86;58.70;101262.50;5022250;28;20033;-42
2021/05/27 05:39:33;;;;;;;12.77;4.85;;;;;;;17.84;59.39;101267.41;5022104;28;20055;-43
2021/05/27 05:41:58;;;;;;;13.48;4.50;;;;;;;17.81;59.76;101265.34;4988616;28;20049;-42
2021/05/27 05:44:23;;;;;;;10.93;4.57;;;;;;;17.85;59.08;101261.69;5022088;28;20041;-43
2021/05/27 05:46:49;;;;;;;9.90;4.22;;;;;;;17.86;59.47;101260.59;5022000;28;20048;-43
2021/05/27 05:49:14;;;;;;;9.30;4.40;;;;;;;17.84;59.45;101262.03;5013786;28;20693;-43
2021/05/27 05:51:40;;;;;;;10.63;3.97;;;;;;;17.83;59.40;101265.81;5029254;28;20037;-44
2021/05/27 05:54:05;;;;;;;5.97;3.85;;;;;;;17.84;59.33;101268.19;5028748;28;20029;-42
2021/05/27 05:56:30;;;;;;;10.75;4.63;;;;;;;17.80;59.26;101272.63;5009809;28;20033;-44
2021/05/27 05:58:56;;;;;;;10.25;4.30;;;;;;;17.73;59.27;101272.34;5011655;28;20400;-43
2021/05/27 06:01:21;;;;;;;12.32;4.65;;;;;;;17.67;59.30;101271.72;5023384;28;20045;-44
2021/05/27 06:03:47;;;;;;;10.15;4.05;;;;;;;17.70;59.05;101281.78;5017848;28;20574;-44
2021/05/27 06:06:12;;;;;;;7.60;3.97;;;;;;;17.66;59.20;101277.38;5023786;28;20040;-44
2021/05/27 06:08:37;;;;;;;6.55;3.70;;;;;;;17.70;59.28;101289.84;5022114;28;20050;-46
2021/05/27 06:11:03;;;;;;;7.68;4.03;;;;;;;17.71;59.25;101286.06;5005351;28;20079;-46
2021/05/27 06:13:28;;;;;;;11.82;4.10;;;;;;;17.77;59.35;101297.47;5030791;28;20057;-46
2021/05/27 06:15:54;;;;;;;9.05;4.45;;;;;;;17.77;59.30;101289.38;5027193;28;20053;-45
2021/05/27 06:18:19;;;;;;;6.43;3.90;;;;;;;17.77;59.35;101300.16;5031324;28;20041;-44
2021/05/27 06:20:44;;;;;;;12.43;4.25;;;;;;;17.72;59.26;101289.56;5029740;28;20052;-47
2021/05/27 06:23:10;;;;;;;15.68;4.35;;;;;;;17.79;59.13;101297.16;5031288;28;20388;-46
2021/05/27 06:25:37;;;;;;;13.82;4.50;;;;;;;17.83;59.35;101306.94;5032934;28;20030;-45
2021/05/27 06:28:02;;;;;;;9.13;4.35;;;;;;;17.73;59.79;101307.28;5025448;28;20119;-45
2021/05/27 06:30:28;;;;;;;9.65;4.22;;;;;;;17.72;59.92;101303.78;5008596;28;20622;-44
2021/05/27 06:32:54;;;;;;;11.05;4.57;;;;;;;17.80;62.27;101304.09;5020811;28;20040;-43
2021/05/27 06:35:19;;;;;;;14.32;5.00;;;;;;;17.74;61.77;101312.31;5022128;28;20699;-44
2021/05/27 06:37:45;;;;;;;14.30;5.03;;;;;;;17.76;61.68;101304.72;5020643;28;20060;-44
2021/05/27 06:40:12;;;;;;;14.98;4.80;;;;;;;17.96;61.26;101308.66;4995849;28;20037;-54
2021/05/27 06:42:38;;;;;;;10.30;4.72;;;;;;;18.02;63.19;101318.16;5019724;28;20064;-54
2021/05/27 06:45:04;;;;;;;11.82;5.22;;;;;;;18.03;63.04;101310.88;5004296;28;20099;-49
2021/05/27 06:47:29;;;;;;;10.55;4.82;;;;;;;18.19;62.09;101310.03;4991395;28;20051;-47
2021/05/27 06:49:54;;;;;;;12.50;4.90;;;;;;;18.19;63.31;101312.72;5007238;28;20762;-51
2021/05/27 06:52:20;;;;;;;11.85;4.70;;;;;;;18.22;62.75;101317.44;5012805;28;20041;-50
2021/05/27 06:54:45;;;;;;;12.50;4.00;;;;;;;18.30;60.68;101318.56;5011353;28;20046;-55
2021/05/27 06:57:10;;;;;;;10.32;4.50;;;;;;;18.36;59.44;101322.63;5020175;28;20052;-46
2021/05/27 06:59:36;;;;;;;8.65;4.20;;;;;;;18.38;61.50;101325.81;5015265;28;20397;-48
2021/05/27 07:02:01;;;;;;;10.15;4.32;;;;;;;18.40;61.48;101322.78;5004231;28;20033;-54
2021/05/27 07:04:27;;;;;;;10.13;4.45;;;;;;;18.46;60.53;101332.28;5003372;28;20042;-49
2021/05/27 07:06:52;;;;;;;10.65;4.45;;;;;;;18.50;60.46;101322.44;4985517;28;20034;-48
2021/05/27 07:09:19;;;;;;;10.05;4.60;;;;;;;18.54;60.60;101324.19;4973590;28;20041;-52
2021/05/27 07:11:45;;;;;;;7.50;3.67;;;;;;;18.56;59.92;101327.34;4984478;28;20041;-52
2021/05/27 07:14:11;;;;;;;7.55;3.80;;;;;;;18.58;59.50;101335.88;5022459;28;20065;-51
2021/05/27 07:16:36;;;;;;;8.90;4.22;;;;;;;18.58;59.68;101327.81;5006448;28;20122;-51
2021/05/27 07:19:02;;;;;;;10.80;4.63;;;;;;;18.59;59.57;101328.59;5004478;28;20496;-50
2021/05/27 07:21:27;;;;;;;7.70;4.20;;;;;;;18.55;59.67;101338.44;5022837;28;20076;-53
2021/05/27 07:23:53;;;;;;;7.32;3.80;;;;;;;18.58;59.11;101343.19;5007562;28;20041;-54
2021/05/27 07:26:18;;;;;;;7.97;4.13;;;;;;;18.62;58.25;101341.41;5023939;28;20034;-52
2021/05/27 07:28:44;;;;;;;10.32;4.25;;;;;;;18.65;58.79;101346.97;5003378;28;20043;-48
2021/05/27 07:31:09;;;;;;;7.43;4.13;;;;;;;18.63;58.83;101341.13;5026114;28;20476;-51
2021/05/27 07:33:35;;;;;;;6.68;3.95;;;;;;;18.65;58.57;101340.78;5023057;28;20044;-50
2021/05/27 07:36:01;;;;;;;10.35;3.90;;;;;;;18.68;58.00;101349.00;5026689;28;20041;-53
2021/05/27 07:38:26;;;;;;;7.47;3.95;;;;;;;18.68;58.14;101342.84;5025641;28;20708;-55
2021/05/27 07:40:52;;;;;;;7.07;3.88;;;;;;;18.68;58.37;101350.91;5010432;28;20041;-53
2021/05/27 07:43:17;;;;;;;10.07;4.22;;;;;;;18.72;58.04;101357.22;4989263;28;20053;-52
2021/05/27 07:45:42;;;;;;;5.90;3.60;;;;;;;18.67;57.89;101350.09;5006058;28;20514;-55
2021/05/27 07:48:08;;;;;;;9.35;3.92;;;;;;;18.66;58.37;101353.13;4991106;28;20092;-47
2021/05/27 07:50:34;;;;;;;6.50;3.78;;;;;;;18.63;58.06;101365.34;5026859;28;20121;-49
2021/05/27 07:52:59;;;;;;;7.78;3.53;;;;;;;18.67;57.21;101350.09;5019741;28;20041;-45
2021/05/27 07:55:26;;;;;;;5.25;3.30;;;;;;;18.66;57.41;101364.66;5012114;28;20038;-44
2021/05/27 07:57:52;;;;;;;8.60;4.13;;;;;;;18.73;57.18;101358.81;5013934;28;20121;-51
2021/05/27 08:00:18;;;;;;;6.28;3.88;;;;;;;18.75;57.41;101372.72;5036393;28;20171;-49
2021/05/27 08:02:43;;;;;;;8.10;3.80;;;;;;;18.60;57.50;101378.66;5027260;28;20045;-56
2021/05/27 08:05:10;;;;;;;7.43;3.97;;;;;;;18.64;57.13;101368.81;5024581;28;20041;-56
2021/05/27 08:07:35;;;;;;;8.95;3.97;;;;;;;18.58;57.11;101376.25;5023026;28;20037;-58
2021/05/27 08:10:00;;;;;;;6.35;3.55;;;;;;;18.64;57.41;101382.25;5036668;28;20042;-54
2021/05/27 08:12:26;;;;;;;9.02;3.63;;;;;;;18.56;57.69;101377.69;5021048;28;20129;-56
2021/05/27 08:14:51;;;;;;;12.25;3.88;;;;;;;18.68;57.45;101383.22;4984604;28;20041;-52
2021/05/27 08:17:17;;;;;;;9.05;4.10;;;;;;;18.66;57.70;101378.13;5010845;28;20073;-53
2021/05/27 08:19:42;;;;;;;9.63;4.22;;;;;;;18.72;57.30;101384.94;5024603;28;20044;-53
2021/05/27 08:22:09;;;;;;;8.45;3.90;;;;;;;18.75;57.32;101388.88;5011883;28;20059;-52
2021/05/27 08:24:34;;;;;;;9.43;4.00;;;;;;;18.80;57.02;101377.91;4987480;28;20124;-57
2021/05/27 08:27:00;;;;;;;6.45;3.72;;;;;;;18.72;57.72;101386.81;4986627;28;20034;-56
2021/05/27 08:29:25;;;;;;;7.57;3.78;;;;;;;18.75;58.01;101395.06;5005022;28;20049;-56
2021/05/27 08:31:50;;;;;;;9.98;4.47;;;;;;;18.75;57.13;101400.44;4998343;28;20450;-55
2021/05/27 08:34:16;;;;;;;5.85;3.70;;;;;;;18.79;57.22;101395.22;5002540;28;20038;-55
2021/05/27 08:36:41;;;;;;;7.35;3.95;;;;;;;18.80;57.16;101396.78;4999214;28;20044;-56
2021/05/27 08:39:09;;;;;;;8.23;4.32;;;;;;;18.80;57.13;101389.50;5004803;28;20079;-58
2021/05/27 08:41:34;;;;;;;9.13;3.75;;;;;;;18.77;56.67;101387.44;4987590;28;20455;-58
2021/05/27 08:44:01;;;;;;;7.55;3.65;;;;;;;18.67;56.86;101395.09;5007563;28;20116;-58
2021/05/27 08:46:26;;;;;;;7.63;3.70;;;;;;;18.68;56.22;101400.16;5023491;28;20087;-57
2021/05/27 08:48:51;;;;;;;11.02;4.03;;;;;;;18.68;56.09;101410.13;5010520;28;20045;-58
2021/05/27 08:51:17;;;;;;;5.22;3.58;;;;;;;18.68;56.15;101408.25;4994196;28;20103;-59
2021/05/27 08:53:44;;;;;;;6.18;3.72;;;;;;;18.54;56.57;101417.59;4993222;28;20148;-56
2021/05/27 08:56:09;;;;;;;7.15;4.00;;;;;;;18.46;56.25;101415.69;5012737;28;20041;-58
2021/05/27 08:58:35;;;;;;;8.35;4.00;;;;;;;18.53;56.31;101408.75;5010295;28;20560;-58
2021/05/27 09:01:01;;;;;;;6.55;3.72;;;;;;;18.47;56.22;101419.97;5007039;28;20040;-58
2021/05/27 09:03:48;;;;;;;6.50;3.80;;;;;;;18.48;56.18;101419.69;5004130;28;20056;-58
2021/05/27 09:06:13;;;;;;;5.82;4.00;;;;;;;18.52;56.71;101417.94;5009094;28;20176;-48
2021/05/27 09:08:39;;;;;;;6.95;3.72;;;;;;;18.59;56.74;101420.13;4994487;28;20679;-45
2021/05/27 09:11:08;;;;;;;10.52;3.78;;;;;;;18.67;56.17;101430.88;5015079;28;20386;-50
2021/05/27 09:13:34;;;;;;;6.40;3.65;;;;;;;18.71;55.99;101426.44;5007918;28;20121;-43
2021/05/27 09:16:09;;;;;;;7.90;3.88;;;;;;;18.64;56.46;101425.34;5015651;28;20124;-52
2021/05/27 09:18:42;;;;;;;7.15;3.58;;;;;;;18.71;56.20;101431.03;5022816;28;20041;-45
2021/05/27 09:21:09;;;;;;;5.65;3.47;;;;;;;18.78;56.18;101431.31;5026921;28;20133;-46
2021/05/27 09:23:35;;;;;;;6.07;3.50;;;;;;;18.80;55.57;101426.38;5024740;28;20042;-47
2021/05/27 09:26:12;;;;;;;8.18;3.70;;;;;;;18.76;56.09;101430.84;5014199;28;20061;-44
2021/05/27 09:28:38;;;;;;;8.68;4.45;;;;;;;18.79;56.03;101431.00;5022197;28;20448;-45
2021/05/27 09:31:08;;;;;;;7.20;4.13;;;;;;;18.80;55.53;101434.47;5029612;28;20124;-49
2021/05/27 09:33:34;;;;;;;7.13;4.03;;;;;;;18.77;56.01;101440.53;5022311;28;20039;-45
2021/05/27 09:36:06;;;;;;;8.73;4.20;;;;;;;18.69;55.99;101441.31;5007226;28;20037;-48
2021/05/27 09:38:33;;;;;;;7.95;4.00;;;;;;;18.74;55.69;101441.16;5008339;28;20045;-44
2021/05/27 09:40:59;;;;;;;7.07;3.45;;;;;;;18.77;55.00;101443.22;4990782;28;20421;-46
2021/05/27 09:43:25;;;;;;;6.82;3.90;;;;;;;18.70;55.48;101445.59;4993512;28;20049;-44
2021/05/27 09:46:06;;;;;;;9.90;4.78;;;;;;;18.63;55.64;101456.88;5006709;28;20504;-47
2021/05/27 09:48:31;;;;;;;12.07;4.10;;;;;;;18.74;54.96;101443.84;4992216;28;20116;-53
2021/05/27 09:50:59;;;;;;;8.00;3.72;;;;;;;18.79;54.85;101455.25;5024993;28;20119;-53
2021/05/27 09:53:26;;;;;;;6.82;3.97;;;;;;;18.68;55.69;101455.91;5007633;28;20123;-54
2021/05/27 09:55:53;;;;;;;8.10;4.32;;;;;;;18.72;55.20;101456.81;5024566;28;20217;-54
2021/05/27 09:58:18;;;;;;;9.05;4.00;;;;;;;18.82;54.77;101464.59;5024006;28;20053;-50
2021/05/27 10:00:44;;;;;;;8.40;3.83;;;;;;;18.71;55.32;101469.53;5009357;28;20114;-48
2021/05/27 10:03:22;;;;;;;10.38;4.82;;;;;;;18.74;55.53;101462.69;5005594;28;20048;-55
2021/05/27 10:05:47;;;;;;;11.00;4.53;;;;;;;18.84;55.29;101471.22;5021377;28;20033;-57
2021/05/27 10:08:13;;;;;;;9.82;4.57;;;;;;;18.84;55.18;101465.84;5024906;28;20036;-56
2021/05/27 10:10:40;;;;;;;10.10;4.40;;;;;;;18.83;54.78;101472.31;5022740;28;20663;-57
2021/05/27 10:13:07;;;;;;;11.85;4.45;;;;;;;18.76;54.94;101469.34;5003153;28;20036;-57
2021/05/27 10:15:32;;;;;;;7.32;4.28;;;;;;;18.70;54.81;101473.31;5019978;28;20052;-57
2021/05/27 10:18:02;;;;;;;9.15;3.90;;;;;;;18.74;54.57;101468.84;5012584;28;20033;-56
2021/05/27 10:20:28;;;;;;;8.32;4.20;;;;;;;18.67;54.77;101478.53;5018663;28;20045;-56
2021/05/27 10:22:56;;;;;;;8.77;4.25;;;;;;;18.68;54.54;101475.53;5017917;28;20033;-56
2021/05/27 10:25:21;;;;;;;8.35;4.40;;;;;;;18.50;55.16;101484.72;5019157;28;20120;-58
2021/05/27 10:27:47;;;;;;;9.02;4.30;;;;;;;18.58;54.29;101489.31;5019175;28;20725;-55
2021/05/27 10:30:13;;;;;;;10.65;4.82;;;;;;;18.24;55.55;101475.88;4987388;28;20038;-58
2021/05/27 10:32:45;;;;;;;12.48;5.30;;;;;;;18.07;56.02;101484.72;5006867;28;20144;-57
2021/05/27 10:35:11;;;;;;;9.60;5.13;;;;;;;18.10;55.69;101486.00;5019263;28;20523;-56
2021/05/27 10:37:39;;;;;;;14.75;4.93;;;;;;;18.23;55.45;101493.91;5005767;28;20107;-56
2021/05/27 10:40:22;;;;;;;10.02;5.28;;;;;;;18.17;55.46;101486.28;5018453;28;20041;-56
2021/05/27 10:42:56;;;;;;;12.48;5.03;;;;;;;18.22;55.43;101494.22;5018477;28;20511;-56
2021/05/27 10:45:26;;;;;;;14.75;5.75;;;;;;;18.38;54.89;101505.31;5017838;28;20522;-57
2021/05/27 10:48:16;;;;;;;11.30;5.20;;;;;;;18.30;55.30;101505.00;5021227;28;20037;-56
2021/05/27 10:53:38;;;;;;;14.00;4.88;;;;;;;18.26;55.40;101505.94;5014311;28;20134;-56
2021/05/27 10:56:05;;;;;;;12.60;5.28;;;;;;;18.31;55.04;101511.94;5022957;28;20125;-55
2021/05/27 10:58:45;;;;;;;10.48;4.55;;;;;;;18.47;55.31;101516.88;5024621;28;20034;-50
2021/05/27 11:01:10;;;;;;;11.23;5.10;;;;;;;18.55;56.68;101514.16;5026208;28;20125;-51
2021/05/27 11:03:46;;;;;;;11.00;5.05;;;;;;;18.64;55.57;101522.25;5014259;28;20042;-51
2021/05/27 11:06:28;;;;;;;10.05;5.10;;;;;;;18.67;56.68;101516.22;5022188;28;20052;-49
2021/05/27 11:09:14;;;;;;;10.18;4.55;;;;;;;18.73;55.48;101526.53;5020199;28;20089;-51
2021/05/27 11:11:51;;;;;;;9.90;5.43;;;;;;;18.74;56.78;101536.16;5011481;28;20037;-50
2021/05/27 11:14:20;;;;;;;10.35;4.95;;;;;;;18.74;56.43;101530.78;5023908;28;20037;-45
2021/05/27 11:20:12;;;;;;;11.50;5.13;;;;;;;18.77;55.87;101529.38;5023814;28;20103;-51
2021/05/27 11:25:43;;;;;;;8.27;4.80;;;;;;;18.82;55.73;101537.28;5005668;28;20034;-53
2021/05/27 11:28:02;;;;;;;7.47;4.50;;;;;;;18.83;54.68;101531.56;5003271;28;20065;-52
2021/05/27 11:30:36;;;;;;;9.07;4.40;;;;;;;18.81;55.44;101530.31;5014187;28;20033;-52
2021/05/27 11:33:06;;;;;;;9.18;4.85;;;;;;;18.84;54.68;101535.06;5006997;28;20065;-56
2021/05/27 11:35:37;;;;;;;7.30;4.30;;;;;;;18.82;55.36;101535.34;4996223;28;20030;-57